Aviation Digital Data Service (ADDS)

Output produced by METARs form (1234 UTC 25 July 2017)
found at http://www.aviationweather.gov/adds/metars/
 
KDOV 251208Z 32010KT 10SM SCT013 SCT019 22/22 A3000 RMK AO2A SLP162 $
TAF AMD KDOV 251045Z 2510/2614 32009KT 9999 SCT007 BKN040 QNH2994INS 
     BECMG 2513/2514 31009KT 9999 SCT010 QNH3004INS 
     BECMG 2518/2519 34009KT 9999 SCT040 QNH3007INS 
     BECMG 2600/2601 VRB06KT 9999 FEW010 BKN030 QNH3014INS 
     BECMG 2610/2611 VRB06KT 9999 BKN010 QNH3020INS TX28/2518Z TN21/2510Z